createdAt,value
2019-04-10T00:04:21.674Z,101221.95
2019-04-10T00:09:25.284Z,101219.94
2019-04-10T00:14:28.313Z,101225.07
2019-04-10T00:19:31.082Z,101218.69
2019-04-10T00:24:33.798Z,101221.25
2019-04-10T00:29:36.501Z,101226.14
2019-04-10T00:34:39.995Z,101216.59
2019-04-10T00:39:42.915Z,101226.53
2019-04-10T00:44:45.925Z,101230.08
2019-04-10T00:49:50.339Z,101233.15
2019-04-10T00:54:53.243Z,101237.11
2019-04-10T00:59:56.839Z,101223.69
2019-04-10T01:05:00.995Z,101225.02
2019-04-10T01:10:06.052Z,101228.52
2019-04-10T01:15:14.221Z,101215.98
2019-04-10T01:20:17.617Z,101218.17
2019-04-10T01:25:20.392Z,101214.73
2019-04-10T01:30:23.077Z,101211.24
2019-04-10T01:35:26.608Z,101217.75
2019-04-10T01:40:29.457Z,101225.98
2019-04-10T01:45:32.156Z,101214.74
2019-04-10T01:50:34.960Z,101208.70
2019-04-10T01:55:38.747Z,101212.17
2019-04-10T02:00:45.967Z,101207.86
2019-04-10T02:05:49.167Z,101215.19
2019-04-10T02:10:52.239Z,101229.90
2019-04-10T02:15:58.593Z,101226.03
2019-04-10T02:21:01.475Z,101219.53
2019-04-10T02:26:05.184Z,101221.26
2019-04-10T02:31:08.100Z,101209.19
2019-04-10T02:36:10.924Z,101205.73
2019-04-10T02:41:14.158Z,101197.11
2019-04-10T02:46:16.997Z,101213.08
2019-04-10T02:51:20.051Z,101208.73
2019-04-10T02:56:24.880Z,101205.71
2019-04-10T03:01:27.513Z,101207.86
2019-04-10T03:06:31.138Z,101208.34
2019-04-10T03:11:35.337Z,101202.70
2019-04-10T03:16:38.182Z,101209.17
2019-04-10T03:21:40.892Z,101211.75
2019-04-10T03:26:43.819Z,101225.17
2019-04-10T03:31:47.717Z,101222.98
2019-04-10T03:36:51.780Z,101228.61
2019-04-10T03:41:54.755Z,101225.55
2019-04-10T03:46:58.616Z,101221.19
2019-04-10T03:52:01.590Z,101225.52
2019-04-10T03:57:05.344Z,101233.24
2019-04-10T04:02:08.046Z,101233.66
2019-04-10T04:07:11.301Z,101243.09
2019-04-10T04:12:14.757Z,101237.03
2019-04-10T04:17:18.061Z,101246.44
2019-04-10T04:22:20.937Z,101246.89
2019-04-10T04:27:23.693Z,101258.08
2019-04-10T04:32:26.428Z,101254.53
2019-04-10T04:37:30.097Z,101268.80
2019-04-10T04:42:33.051Z,101262.34
2019-04-10T04:47:35.895Z,101267.84
2019-04-10T04:52:39.118Z,101277.37
2019-04-10T04:57:42.286Z,101271.70
2019-04-10T05:02:45.119Z,101291.50
2019-04-10T05:07:58.499Z,101287.63
2019-04-10T05:12:53.534Z,101289.00
2019-04-10T05:17:57.626Z,101299.75
2019-04-10T05:23:00.461Z,101302.84
2019-04-10T05:28:03.637Z,101304.67
2019-04-10T05:33:06.488Z,101299.99
2019-04-10T05:38:10.189Z,101306.53
2019-04-10T05:43:13.459Z,101307.92
2019-04-10T05:48:17.254Z,101322.58
2019-04-10T05:53:20.427Z,101324.80
2019-04-10T05:58:23.761Z,101321.37
2019-04-10T06:03:26.620Z,101325.17
2019-04-10T06:08:29.303Z,101331.77
2019-04-10T06:13:32.601Z,101333.52
2019-04-10T06:18:35.537Z,101340.05
2019-04-10T06:23:39.317Z,101333.55
2019-04-10T06:28:42.246Z,101329.25
2019-04-10T06:33:45.039Z,101332.72
2019-04-10T06:38:47.916Z,101333.58
2019-04-10T06:43:50.606Z,101334.00
2019-04-10T06:48:53.308Z,101340.05
2019-04-10T06:54:02.750Z,101352.94
2019-04-10T06:59:00.646Z,101345.98
2019-04-10T07:04:07.574Z,101345.47
2019-04-10T07:09:11.785Z,101345.86
2019-04-10T07:14:14.580Z,101357.56
2019-04-10T07:19:17.730Z,101355.35
2019-04-10T07:24:20.856Z,101358.51
2019-04-10T07:29:26.753Z,101362.37
2019-04-10T07:34:29.891Z,101366.23
2019-04-10T07:39:34.096Z,101354.30
2019-04-10T07:44:37.413Z,101366.16
2019-04-10T07:49:40.109Z,101364.79
2019-04-10T07:54:44.579Z,101371.67
2019-04-10T07:59:47.523Z,101373.90
2019-04-10T08:04:50.318Z,101373.70
2019-04-10T08:09:54.015Z,101379.16
2019-04-10T08:14:56.917Z,101382.58
2019-04-10T08:19:59.607Z,101381.66
2019-04-10T08:25:02.437Z,101383.52
2019-04-10T08:30:07.524Z,101377.77
2019-04-10T08:35:11.384Z,101379.32
2019-04-10T08:40:15.643Z,101385.09
2019-04-10T08:45:18.933Z,101377.96
2019-04-10T08:50:21.880Z,101375.38
2019-04-10T08:55:24.605Z,101390.38
2019-04-10T09:00:27.304Z,101377.96
2019-04-10T09:05:30.026Z,101386.20
2019-04-10T09:10:34.365Z,101378.17
2019-04-10T09:15:38.124Z,101372.89
2019-04-10T09:20:40.911Z,101374.27
2019-04-10T09:25:43.799Z,101376.34
2019-04-10T09:30:46.533Z,101368.30
2019-04-10T09:35:49.251Z,101361.97
2019-04-10T09:40:53.339Z,101365.96
2019-04-10T09:45:56.093Z,101366.06
2019-04-10T09:51:01.006Z,101359.37
2019-04-10T09:56:15.180Z,101353.55
2019-04-10T10:01:18.101Z,101363.69
2019-04-10T10:06:26.050Z,101361.55
2019-04-10T10:11:27.239Z,101355.66
2019-04-10T10:16:31.637Z,101357.66
2019-04-10T10:21:34.663Z,101362.86
2019-04-10T10:26:37.501Z,101366.40
2019-04-10T10:31:40.322Z,101358.58
2019-04-10T10:36:46.227Z,101357.41
2019-04-10T10:41:48.985Z,101350.84
2019-04-10T10:46:51.855Z,101349.25
2019-04-10T10:51:55.180Z,101347.56
2019-04-10T10:56:58.479Z,101346.34
2019-04-10T11:02:02.363Z,101351.22
2019-04-10T11:07:05.236Z,101344.81
2019-04-10T11:12:07.940Z,101348.50
2019-04-10T11:17:11.891Z,101343.26
2019-04-10T11:22:18.359Z,101348.45
2019-04-10T11:27:19.333Z,101343.02
2019-04-10T11:32:22.194Z,101340.88
2019-04-10T11:37:36.616Z,101350.72
2019-04-10T11:42:31.793Z,101352.95
2019-04-10T11:47:35.406Z,101352.50
2019-04-10T11:52:45.153Z,101357.52
2019-04-10T11:57:45.898Z,101353.28
2019-04-10T12:02:52.377Z,101352.63
2019-04-10T12:08:16.315Z,101336.59
2019-04-10T12:12:57.621Z,101346.52
2019-04-10T12:18:00.423Z,101352.78
2019-04-10T12:23:03.117Z,101353.45
2019-04-10T12:28:05.831Z,101350.55
2019-04-10T12:33:09.555Z,101348.66
2019-04-10T12:38:13.402Z,101343.00
2019-04-10T12:43:16.765Z,101348.22
2019-04-10T12:48:20.617Z,101339.80
2019-04-10T12:53:23.574Z,101340.34
2019-04-10T12:58:26.650Z,101348.30
2019-04-10T13:03:29.526Z,101349.02
2019-04-10T13:08:51.537Z,101348.16
2019-04-10T13:13:37.977Z,101337.88
2019-04-10T13:18:40.822Z,101342.42
2019-04-10T13:23:44.684Z,101330.00
2019-04-10T13:28:47.695Z,101333.93
2019-04-10T13:33:51.081Z,101317.73
2019-04-10T13:38:54.731Z,101319.39
2019-04-10T13:43:58.155Z,101330.91
2019-04-10T13:49:01.954Z,101323.27
2019-04-10T13:54:04.768Z,101329.00
2019-04-10T13:59:07.488Z,101322.61
2019-04-10T14:04:11.139Z,101316.86
2019-04-10T14:09:31.264Z,101321.44
2019-04-10T14:14:22.595Z,101314.00
2019-04-10T14:19:27.744Z,101324.74
2019-04-10T14:24:40.319Z,101318.74
2019-04-10T14:29:35.405Z,101319.42
2019-04-10T14:34:38.792Z,101310.25
2019-04-10T14:39:42.367Z,101320.06
2019-04-10T14:44:45.220Z,101315.41
2019-04-10T14:49:47.917Z,101315.64
2019-04-10T14:54:50.684Z,101319.69
2019-04-10T14:59:53.385Z,101323.06
2019-04-10T15:04:56.128Z,101322.70
2019-04-10T15:09:58.858Z,101324.81
2019-04-10T15:15:01.865Z,101319.07
2019-04-10T15:20:05.340Z,101324.57
2019-04-10T15:25:08.842Z,101327.58
2019-04-10T15:30:14.604Z,101330.55
2019-04-10T15:35:18.118Z,101332.73
2019-04-10T15:40:25.619Z,101337.86
2019-04-10T15:45:26.016Z,101334.85
2019-04-10T15:50:28.926Z,101335.09
2019-04-10T15:55:32.237Z,101331.53
2019-04-10T16:00:35.195Z,101348.27
2019-04-10T16:05:38.056Z,101346.86
2019-04-10T16:11:05.609Z,101336.05
2019-04-10T16:16:27.589Z,101342.09
2019-04-10T16:21:31.885Z,101346.74
2019-04-10T16:26:35.710Z,101348.69
2019-04-10T16:31:39.646Z,101345.31
2019-04-10T16:36:43.673Z,101351.24
2019-04-10T16:41:46.691Z,101347.75
2019-04-10T16:46:50.762Z,101359.95
2019-04-10T16:51:53.740Z,101358.43
2019-04-10T16:56:56.512Z,101355.65
2019-04-10T17:02:00.281Z,101358.83
2019-04-10T17:07:03.599Z,101368.08
2019-04-10T17:12:06.855Z,101374.51
2019-04-10T17:17:10.385Z,101369.63
2019-04-10T17:22:14.359Z,101373.76
2019-04-10T17:27:17.319Z,101372.72
2019-04-10T17:32:19.995Z,101384.70
2019-04-10T17:37:23.427Z,101393.09
2019-04-10T17:42:26.216Z,101388.72
2019-04-10T17:47:31.249Z,101396.53
2019-04-10T17:52:37.217Z,101400.16
2019-04-10T17:57:41.879Z,101409.27
2019-04-10T18:02:43.492Z,101416.63
2019-04-10T18:07:46.210Z,101416.09
2019-04-10T18:12:49.126Z,101430.02
2019-04-10T18:17:51.914Z,101429.41
2019-04-10T18:22:55.365Z,101436.02
2019-04-10T18:27:58.194Z,101445.12
2019-04-10T18:33:00.925Z,101452.47
2019-04-10T18:38:03.708Z,101452.19
2019-04-10T18:43:07.652Z,101468.28
2019-04-10T18:48:10.470Z,101475.27
2019-04-10T18:53:13.277Z,101479.63
2019-04-10T18:58:21.274Z,101489.79
2019-04-10T19:03:46.148Z,101497.50
2019-04-10T19:08:41.501Z,101498.14
2019-04-10T19:13:44.217Z,101507.80
2019-04-10T19:18:47.991Z,101510.53
2019-04-10T19:23:50.765Z,101514.87
2019-04-10T19:28:53.832Z,101515.52
2019-04-10T19:33:56.981Z,101525.70
2019-04-10T19:39:00.027Z,101518.92
2019-04-10T19:44:04.933Z,101532.34
2019-04-10T19:49:08.154Z,101536.75
2019-04-10T19:54:11.158Z,101542.56
2019-04-10T19:59:14.532Z,101540.95
2019-04-10T20:04:18.744Z,101555.83
2019-04-10T20:09:22.214Z,101555.31
2019-04-10T20:14:25.208Z,101561.16
2019-04-10T20:19:28.709Z,101560.36
2019-04-10T20:24:32.604Z,101565.66
2019-04-10T20:29:35.447Z,101576.84
2019-04-10T20:34:38.153Z,101578.98
2019-04-10T20:39:41.365Z,101579.19
2019-04-10T20:44:44.999Z,101583.18
2019-04-10T20:49:47.802Z,101588.44
2019-04-10T20:54:50.563Z,101592.83
2019-04-10T20:59:53.346Z,101601.09
2019-04-10T21:05:01.355Z,101600.23
2019-04-10T21:10:00.846Z,101612.52
2019-04-10T21:15:05.419Z,101618.61
2019-04-10T21:20:09.713Z,101626.09
2019-04-10T21:25:12.670Z,101629.11
2019-04-10T21:30:40.860Z,101632.16
2019-04-10T21:35:43.762Z,101636.06
2019-04-10T21:40:47.402Z,101640.02
2019-04-10T21:45:50.249Z,101644.38
2019-04-10T21:50:53.765Z,101664.78
2019-04-10T21:55:56.674Z,101656.17
2019-04-10T22:01:05.694Z,101666.14
2019-04-10T22:06:31.069Z,101664.84
2019-04-10T22:11:34.000Z,101667.45
2019-04-10T22:16:38.008Z,101668.81
2019-04-10T22:21:41.706Z,101670.55
2019-04-10T22:26:44.651Z,101668.00
2019-04-10T22:31:47.335Z,101672.75
2019-04-10T22:36:50.366Z,101675.37
2019-04-10T22:41:53.182Z,101682.30
2019-04-10T22:46:55.886Z,101684.91
2019-04-10T22:51:58.596Z,101686.20
2019-04-10T22:57:01.293Z,101691.39
2019-04-10T23:02:08.850Z,101698.31
2019-04-10T23:07:09.374Z,101702.64
2019-04-10T23:12:12.265Z,101706.55
2019-04-10T23:17:14.961Z,101706.97
2019-04-10T23:22:18.684Z,101704.34
2019-04-10T23:27:21.805Z,101713.01
2019-04-10T23:32:24.672Z,101710.84
2019-04-10T23:37:27.383Z,101708.27
2019-04-10T23:42:30.320Z,101717.38
2019-04-10T23:47:34.008Z,101724.27
2019-04-10T23:52:37.896Z,101734.20
2019-04-10T23:57:41.211Z,101725.11
